createdAt,value
2018-02-05T02:25:52.796Z,4.48
2018-02-05T02:28:28.489Z,4.40
2018-02-05T02:30:59.942Z,4.42
2018-02-05T02:33:32.856Z,4.71
2018-02-05T02:36:04.999Z,4.68
2018-02-05T02:38:36.045Z,4.76
2018-02-05T02:41:05.782Z,4.62
2018-02-05T02:43:37.350Z,4.80
2018-02-05T02:46:08.143Z,4.73
2018-02-05T02:48:47.086Z,4.32
2018-02-05T02:51:30.555Z,4.49
2018-02-05T02:54:07.635Z,4.50
2018-02-05T02:56:43.538Z,4.20
2018-02-05T02:59:15.569Z,4.62
2018-02-05T03:01:47.822Z,4.83
2018-02-05T03:04:17.753Z,5.04
2018-02-05T03:06:49.096Z,5.28
2018-02-05T03:09:22.573Z,5.45
2018-02-05T03:11:53.126Z,5.21
2018-02-05T03:14:30.060Z,4.91
2018-02-05T03:17:00.018Z,4.76
2018-02-05T03:35:54.136Z,5.26
2018-02-05T03:38:23.818Z,5.38
2018-02-05T03:40:54.397Z,5.59
2018-02-05T03:43:28.603Z,5.41
2018-02-05T03:45:58.258Z,5.28
2018-02-05T03:48:28.195Z,5.31
2018-02-05T03:50:57.733Z,5.17
2018-02-05T03:53:31.910Z,5.14
2018-02-05T03:56:17.223Z,5.05
2018-02-05T03:59:02.722Z,4.90
2018-02-05T04:01:32.602Z,4.72
2018-02-05T04:04:02.329Z,4.95
2018-02-05T04:06:41.099Z,5.30
2018-02-05T04:09:11.900Z,5.47
2018-02-05T04:11:48.917Z,5.50
2018-02-05T04:14:23.625Z,5.50
2018-02-05T04:16:54.210Z,5.30
2018-02-05T04:19:26.224Z,5.04
2018-02-05T04:21:56.120Z,5.06
2018-02-05T04:24:30.267Z,5.24
2018-02-05T04:27:00.831Z,5.39
2018-02-05T04:29:34.907Z,5.41
2018-02-05T04:32:08.096Z,5.15
2018-02-05T04:34:38.114Z,5.26
2018-02-05T04:37:07.678Z,5.28
2018-02-05T04:39:42.956Z,5.22
2018-02-05T04:42:15.892Z,5.39
2018-02-05T04:45:06.126Z,5.46
2018-02-05T04:47:38.818Z,5.50
2018-02-05T05:25:23.604Z,5.27
2018-02-05T05:27:54.852Z,5.20
2018-02-05T05:30:36.953Z,4.97
2018-02-05T05:33:07.428Z,4.63
2018-02-05T05:35:42.454Z,4.68
2018-02-05T05:41:27.282Z,5.04
2018-02-05T05:44:06.681Z,5.15
2018-02-05T05:46:53.140Z,5.39
2018-02-05T05:49:27.380Z,5.39
2018-02-05T05:52:04.968Z,5.34
2018-02-05T05:54:35.541Z,5.37
2018-02-05T05:57:05.159Z,5.24
